createdAt,value
2023-05-19T00:01:09.019Z,33.58
2023-05-19T00:05:12.870Z,33.18
2023-05-19T00:09:14.423Z,33.16
2023-05-19T00:13:16.042Z,33.28
2023-05-19T00:17:17.727Z,33.26
2023-05-19T00:21:19.638Z,33.20
2023-05-19T00:25:21.224Z,33.08
2023-05-19T00:29:22.630Z,33.59
2023-05-19T00:33:23.985Z,33.70
2023-05-19T00:37:25.382Z,33.81
2023-05-19T00:41:26.828Z,33.51
2023-05-19T00:45:29.226Z,34.08
2023-05-19T00:49:30.702Z,34.23
2023-05-19T00:53:33.937Z,33.87
2023-05-19T00:57:35.685Z,34.64
2023-05-19T01:01:37.234Z,34.50
2023-05-19T01:05:41.690Z,34.55
2023-05-19T01:09:43.473Z,34.75
2023-05-19T01:13:45.617Z,34.79
2023-05-19T01:18:07.352Z,35.08
2023-05-19T01:22:13.186Z,34.87
2023-05-19T01:26:14.732Z,35.28
2023-05-19T01:30:25.386Z,35.52
2023-05-19T01:34:27.663Z,35.69
2023-05-19T01:38:29.939Z,35.80
2023-05-19T01:42:37.200Z,35.93
2023-05-19T01:46:38.821Z,36.03
2023-05-19T01:50:41.916Z,36.19
2023-05-19T01:54:43.364Z,37.34
2023-05-19T01:58:47.439Z,36.43
2023-05-19T02:03:03.871Z,36.41
2023-05-19T02:07:25.958Z,36.87
2023-05-19T02:11:38.441Z,36.36
2023-05-19T02:15:45.450Z,36.66
2023-05-19T02:19:47.234Z,36.77
2023-05-19T02:23:51.475Z,37.08
2023-05-19T02:27:52.919Z,37.03
2023-05-19T02:31:54.398Z,36.80
2023-05-19T02:35:57.148Z,37.70
2023-05-19T02:39:58.554Z,37.68
2023-05-19T02:43:59.987Z,37.63
2023-05-19T02:48:01.468Z,37.34
2023-05-19T02:52:03.798Z,38.00
2023-05-19T02:56:05.202Z,37.55
2023-05-19T03:00:07.885Z,38.04
2023-05-19T03:04:09.547Z,37.66
2023-05-19T03:08:11.002Z,38.11
2023-05-19T03:12:12.528Z,37.98
2023-05-19T03:16:14.068Z,38.35
2023-05-19T03:20:18.386Z,38.24
2023-05-19T03:24:19.849Z,38.11
2023-05-19T03:28:21.442Z,38.43
2023-05-19T03:32:22.951Z,38.85
2023-05-19T03:36:24.404Z,38.65
2023-05-19T03:40:25.830Z,39.08
2023-05-19T03:44:27.249Z,39.07
2023-05-19T03:48:28.604Z,38.75
2023-05-19T03:52:29.988Z,38.97
2023-05-19T03:56:32.699Z,39.08
2023-05-19T04:00:34.366Z,38.67
2023-05-19T04:04:37.349Z,38.44
2023-05-19T04:08:41.569Z,38.51
2023-05-19T04:12:43.000Z,38.50
2023-05-19T04:16:44.426Z,38.64
2023-05-19T04:20:45.832Z,38.14
2023-05-19T04:24:47.728Z,38.76
2023-05-19T04:28:49.136Z,38.02
2023-05-19T04:32:50.949Z,39.64
2023-05-19T04:36:53.463Z,39.83
2023-05-19T04:40:56.313Z,39.87
2023-05-19T04:44:58.122Z,38.29
2023-05-19T04:49:01.170Z,37.04
2023-05-19T04:53:02.622Z,36.13
2023-05-19T04:57:04.550Z,38.73
2023-05-19T05:01:05.955Z,36.24
2023-05-19T05:05:08.007Z,36.05
2023-05-19T05:09:10.507Z,35.64
2023-05-19T05:13:12.192Z,35.18
2023-05-19T05:17:14.030Z,35.85
2023-05-19T05:21:15.859Z,35.95
2023-05-19T05:25:18.007Z,38.38
2023-05-19T05:29:20.052Z,35.42
2023-05-19T05:33:22.244Z,35.81
2023-05-19T05:37:23.812Z,32.36
2023-05-19T05:41:25.266Z,33.67
2023-05-19T05:45:26.725Z,32.32
2023-05-19T05:49:28.439Z,30.09
2023-05-19T05:53:32.212Z,31.40
2023-05-19T05:57:35.473Z,31.08
2023-05-19T06:01:37.277Z,30.09
2023-05-19T06:05:39.148Z,26.95
2023-05-19T06:09:40.708Z,30.31
2023-05-19T06:13:42.171Z,30.46
2023-05-19T06:17:43.635Z,25.63
2023-05-19T06:21:45.157Z,26.38
2023-05-19T06:25:46.822Z,27.73
2023-05-19T06:29:48.349Z,28.29
2023-05-19T06:33:49.680Z,26.51
2023-05-19T06:37:51.300Z,25.25
2023-05-19T06:41:52.646Z,23.22
2023-05-19T06:45:54.246Z,23.46
2023-05-19T06:49:55.821Z,21.41
2023-05-19T06:53:57.395Z,22.94
2023-05-19T06:57:58.845Z,21.67
2023-05-19T07:02:02.412Z,20.56
2023-05-19T07:06:05.681Z,19.66
2023-05-19T07:10:08.898Z,20.76
2023-05-19T07:14:10.270Z,19.69
2023-05-19T07:18:11.706Z,18.42
2023-05-19T07:22:13.102Z,17.63
2023-05-19T07:26:14.500Z,18.74
2023-05-19T07:30:15.966Z,18.19
2023-05-19T07:34:17.376Z,18.04
2023-05-19T07:38:18.837Z,18.04
2023-05-19T07:42:20.326Z,17.16
2023-05-19T07:46:22.264Z,17.13
2023-05-19T07:50:23.826Z,17.89
2023-05-19T07:54:25.361Z,17.64
2023-05-19T07:58:26.867Z,19.20
2023-05-19T08:02:28.315Z,21.07
2023-05-19T08:06:30.103Z,17.54
2023-05-19T08:10:31.689Z,17.40
2023-05-19T08:14:34.776Z,23.30
2023-05-19T08:18:36.148Z,22.67
2023-05-19T08:22:37.651Z,19.21
2023-05-19T08:26:39.003Z,18.36
2023-05-19T08:30:40.413Z,18.74
2023-05-19T08:34:42.132Z,21.83
2023-05-19T08:38:43.588Z,22.49
2023-05-19T08:42:45.838Z,18.21
2023-05-19T08:46:47.911Z,17.58
2023-05-19T08:51:08.122Z,20.92
2023-05-19T08:55:21.611Z,16.50
2023-05-19T08:59:23.224Z,15.20
2023-05-19T09:03:26.525Z,15.82
2023-05-19T09:07:30.149Z,19.43
2023-05-19T09:11:32.693Z,18.67
2023-05-19T09:15:36.796Z,16.43
2023-05-19T09:19:43.189Z,19.17
2023-05-19T09:23:47.425Z,19.20
2023-05-19T09:27:49.604Z,16.20
2023-05-19T09:31:51.732Z,15.21
2023-05-19T09:35:55.223Z,15.27
2023-05-19T09:39:56.643Z,16.23
2023-05-19T09:43:58.472Z,13.82
2023-05-19T09:48:04.651Z,17.70
2023-05-19T09:52:07.772Z,14.61
2023-05-19T09:56:09.956Z,14.62
2023-05-19T10:00:14.706Z,14.29
2023-05-19T10:04:17.147Z,15.34
2023-05-19T10:08:18.669Z,14.53
2023-05-19T10:12:20.892Z,16.15
2023-05-19T10:16:26.623Z,19.01
2023-05-19T10:20:28.503Z,22.01
2023-05-19T10:24:29.874Z,19.75
2023-05-19T10:28:36.868Z,18.88
2023-05-19T10:32:40.392Z,16.97
2023-05-19T10:36:48.440Z,14.60
2023-05-19T10:40:58.771Z,15.69
2023-05-19T10:45:17.827Z,15.40
2023-05-19T10:49:22.750Z,16.46
2023-05-19T10:53:33.256Z,15.27
2023-05-19T10:57:35.443Z,15.40
2023-05-19T11:01:38.795Z,15.40
2023-05-19T11:05:40.256Z,15.29
2023-05-19T11:09:41.696Z,14.43
2023-05-19T11:13:47.990Z,15.47
2023-05-19T11:17:50.378Z,17.34
2023-05-19T11:21:54.863Z,15.67
2023-05-19T11:25:56.357Z,16.38
2023-05-19T11:30:00.333Z,15.40
2023-05-19T11:34:02.140Z,16.04
2023-05-19T11:38:03.737Z,17.49
2023-05-19T11:42:05.378Z,15.37
2023-05-19T11:46:09.388Z,15.12
2023-05-19T11:50:12.725Z,18.09
2023-05-19T11:54:14.242Z,18.20
2023-05-19T11:58:16.557Z,17.74
2023-05-19T12:02:25.056Z,17.01
2023-05-19T12:06:27.728Z,15.64
2023-05-19T12:10:34.348Z,19.90
2023-05-19T12:14:36.063Z,15.54
2023-05-19T12:18:38.479Z,19.92
2023-05-19T12:22:39.992Z,18.24
2023-05-19T12:26:41.407Z,17.27
2023-05-19T12:30:48.385Z,20.10
2023-05-19T12:34:53.749Z,17.98
2023-05-19T12:38:55.781Z,17.87
2023-05-19T12:42:59.214Z,20.04
2023-05-19T12:47:04.935Z,18.22
2023-05-19T12:51:06.373Z,16.95
2023-05-19T12:55:09.125Z,17.17
2023-05-19T12:59:10.624Z,16.51
2023-05-19T13:03:20.338Z,16.74
2023-05-19T13:07:22.204Z,17.10
2023-05-19T13:11:23.587Z,19.28
2023-05-19T13:15:26.737Z,20.29
2023-05-19T13:19:28.300Z,21.26
2023-05-19T13:23:29.684Z,19.03
2023-05-19T13:27:31.046Z,18.01
2023-05-19T13:31:32.631Z,17.31
2023-05-19T13:35:42.454Z,19.63
2023-05-19T13:39:43.985Z,19.31
2023-05-19T13:43:45.362Z,17.70
2023-05-19T13:47:46.708Z,19.76
2023-05-19T13:51:48.280Z,18.53
2023-05-19T13:55:52.912Z,20.30
2023-05-19T14:00:02.722Z,19.96
2023-05-19T14:04:05.604Z,20.46
2023-05-19T14:08:07.767Z,18.74
2023-05-19T14:12:12.065Z,19.77
2023-05-19T14:16:13.508Z,18.43
2023-05-19T14:20:15.293Z,20.92
2023-05-19T14:24:16.746Z,17.25
2023-05-19T14:28:18.112Z,18.86
2023-05-19T14:32:19.811Z,19.55
2023-05-19T14:36:21.515Z,18.14
2023-05-19T14:40:22.891Z,18.17
2023-05-19T14:44:24.341Z,19.66
2023-05-19T14:48:25.859Z,19.61
2023-05-19T14:52:27.317Z,19.66
2023-05-19T14:56:28.803Z,19.17
2023-05-19T15:00:30.310Z,18.53
2023-05-19T15:04:31.829Z,19.61
2023-05-19T15:08:33.523Z,18.30
2023-05-19T15:12:35.030Z,17.50
2023-05-19T15:16:36.541Z,19.39
2023-05-19T15:20:38.038Z,21.53
2023-05-19T15:24:41.118Z,20.33
2023-05-19T15:28:42.597Z,20.50
2023-05-19T15:32:43.999Z,20.52
2023-05-19T15:36:45.630Z,21.48
2023-05-19T15:40:47.161Z,20.23
2023-05-19T15:44:48.793Z,21.67
2023-05-19T15:48:50.443Z,20.83
2023-05-19T15:52:51.983Z,19.34
2023-05-19T15:56:53.368Z,19.21
2023-05-19T16:00:54.772Z,20.62
2023-05-19T16:04:56.245Z,20.52
2023-05-19T16:08:57.832Z,22.07
2023-05-19T16:12:59.186Z,21.52
2023-05-19T16:17:03.116Z,21.15
2023-05-19T16:21:04.785Z,20.31
2023-05-19T16:25:07.127Z,22.11
2023-05-19T16:29:08.622Z,22.58
2023-05-19T16:33:10.104Z,23.72
2023-05-19T16:37:11.546Z,21.83
2023-05-19T16:41:12.952Z,21.40
2023-05-19T16:45:17.347Z,21.49
2023-05-19T16:49:18.714Z,20.58
2023-05-19T16:53:20.085Z,21.12
2023-05-19T16:57:21.617Z,21.70
2023-05-19T17:01:23.227Z,22.02
2023-05-19T17:05:24.724Z,21.63
2023-05-19T17:09:26.392Z,22.18
2023-05-19T17:13:33.547Z,23.54
2023-05-19T17:17:34.971Z,22.92
2023-05-19T17:21:36.337Z,22.72
2023-05-19T17:25:37.837Z,21.61
2023-05-19T17:29:39.189Z,21.99
2023-05-19T17:33:41.181Z,21.16
2023-05-19T17:37:42.553Z,21.69
2023-05-19T17:41:43.934Z,22.68
2023-05-19T17:45:45.390Z,23.31
2023-05-19T17:49:47.691Z,23.51
2023-05-19T17:53:49.346Z,24.41
2023-05-19T17:57:51.101Z,23.27
2023-05-19T18:01:52.780Z,24.41
2023-05-19T18:05:54.552Z,23.29
2023-05-19T18:09:56.478Z,22.99
2023-05-19T18:13:57.924Z,23.09
2023-05-19T18:17:59.854Z,23.28
2023-05-19T18:22:01.303Z,23.46
2023-05-19T18:26:02.640Z,23.47
2023-05-19T18:30:04.731Z,22.86
2023-05-19T18:34:06.388Z,25.16
2023-05-19T18:38:07.868Z,22.92
2023-05-19T18:42:09.297Z,22.85
2023-05-19T18:46:11.268Z,23.89
2023-05-19T18:50:13.003Z,24.02
2023-05-19T18:54:14.760Z,24.77
2023-05-19T18:58:18.052Z,24.05
2023-05-19T19:02:19.508Z,25.08
2023-05-19T19:06:22.711Z,25.62
2023-05-19T19:10:24.357Z,25.26
2023-05-19T19:14:26.054Z,25.70
2023-05-19T19:18:27.668Z,25.49
2023-05-19T19:22:29.110Z,25.04
2023-05-19T19:26:30.583Z,24.54
2023-05-19T19:30:32.235Z,26.72
2023-05-19T19:34:33.866Z,26.52
2023-05-19T19:38:36.603Z,25.19
2023-05-19T19:42:38.525Z,26.36
2023-05-19T19:46:39.974Z,26.18
2023-05-19T19:50:41.976Z,25.96
2023-05-19T19:54:43.460Z,27.03
2023-05-19T19:58:45.102Z,26.29
2023-05-19T20:06:53.021Z,26.75
2023-05-19T20:10:55.128Z,27.33
2023-05-19T20:14:56.580Z,26.87
2023-05-19T20:18:58.086Z,27.57
2023-05-19T20:22:59.548Z,27.26
2023-05-19T20:27:01.053Z,27.54
2023-05-19T20:31:02.513Z,27.07
2023-05-19T20:35:04.122Z,27.18
2023-05-19T20:39:06.971Z,25.53
2023-05-19T20:43:08.397Z,27.65
2023-05-19T20:47:10.457Z,26.94
2023-05-19T20:51:11.903Z,26.57
2023-05-19T20:55:13.312Z,27.15
2023-05-19T20:59:14.722Z,27.74
2023-05-19T21:03:16.175Z,27.21
2023-05-19T21:07:17.828Z,27.90
2023-05-19T21:11:19.323Z,26.85
2023-05-19T21:15:20.906Z,28.09
2023-05-19T21:19:23.306Z,28.78
2023-05-19T21:23:24.809Z,29.05
2023-05-19T21:27:26.421Z,28.53
2023-05-19T21:31:27.904Z,28.73
2023-05-19T21:35:29.364Z,29.37
2023-05-19T21:39:30.759Z,28.77
2023-05-19T21:43:32.475Z,28.58
2023-05-19T21:47:33.930Z,28.69
2023-05-19T21:51:35.742Z,29.30
2023-05-19T21:55:37.124Z,29.20
2023-05-19T21:59:38.939Z,29.66
2023-05-19T22:03:40.618Z,29.43
2023-05-19T22:07:42.187Z,30.65
2023-05-19T22:11:43.650Z,29.40
2023-05-19T22:15:45.093Z,29.28
2023-05-19T22:19:46.525Z,30.62
2023-05-19T22:23:48.106Z,29.06
2023-05-19T22:27:49.605Z,30.12
2023-05-19T22:31:51.181Z,30.85
2023-05-19T22:35:52.529Z,29.60
2023-05-19T22:39:54.263Z,31.29
2023-05-19T22:43:55.692Z,30.62
2023-05-19T22:47:57.224Z,30.86
2023-05-19T22:51:58.645Z,31.22
2023-05-19T22:56:00.005Z,29.26
2023-05-19T23:00:01.531Z,30.46
2023-05-19T23:04:03.439Z,31.15
2023-05-19T23:08:05.099Z,31.58
2023-05-19T23:12:06.909Z,30.63
2023-05-19T23:16:08.429Z,30.77
2023-05-19T23:20:10.566Z,30.90
2023-05-19T23:24:12.021Z,30.95
2023-05-19T23:28:13.367Z,31.15
2023-05-19T23:32:15.280Z,30.61
2023-05-19T23:36:17.744Z,31.59
2023-05-19T23:40:19.091Z,30.95
2023-05-19T23:44:20.621Z,31.17
2023-05-19T23:48:22.046Z,31.98
2023-05-19T23:52:23.390Z,32.04
2023-05-19T23:56:24.863Z,31.07
